メインページ
METAR-TAF:

METAR-TAF

空港 :

ホバート国際空港

ホバート, オーストラリア

緯度: 42-50S, 経度: 147-29E, 海抜: 4m

現時点の気象観測

当レポートは37分前の07:30(UTC)に作成
南東の風 5kt
気温 18°C
湿度 88%
気圧 1019 hPa
視程: 3000m
高度400ftの雲は散在している
高度1700ftの曇り
小霧雨, 靄

METAR: YMHB 190730Z 14005KT 3000 -DZ BR SCT004 OVC017 18/16 Q1019 RF00.0/000.0

時間: 19:07 (08:07 UTC)

予報

当レポートは30分前の07:37(UTC)に作成
予報は19日の 07時(UTC)から 20日の 06時(UTC)まで有効
南東の風 8kt
視程: 7000m
高度500ftの雲はほとんどない
高度1500ftの千切れ雲あり
小霧雨
19日の 1000時(UTC)から
南/南東の風 3kt
視程: 6000m
高度500ftの雲は散在している
高度1000ftの千切れ雲あり
小霧雨
19日の 2200時(UTC)から
北西の風 5kt
視程10km以上
高度1000ftの雲はほとんどない
高度2000ftの千切れ雲あり
20日の 0200時(UTC)から
南/南東の風 8kt
視程10km以上
高度2000ftの雲は散在している
19日の 07時(UTC)から 19日の 21時(UTC)まで一時的に
視程: 2000m
高度500ftの千切れ雲あり
弱いにわか雨, 靄

TAF: YMHB 190737Z 1907/2006 14008KT 7000 -DZ FEW005 BKN015 FM191000 16003KT 6000 -DZ SCT005 BKN010 FM192200 32005KT 9999 FEW010 BKN020 FM200200 15008KT 9999 SCT020 TEMPO 1907/1921 2000 -SHRA BR BKN005

4,000以上の空港の気象観測と天気予報(METAR報とTAF報)

利用可能な観測所は地図上に黄色い丸と赤い丸で示す。

丸の上にカーソルを重ねると観測所名を参照できる。

次にクリックすると気象観測と天気予報を参照できる。

マップの切り替え:黒色「×」印の緑ボタンをクリックして拡大、「-」印の緑ボタンをクリックして縮小、緑色の三角印をクリックして隣りの地図に切り替え


METAR-TAF: